createdAt,value
2018-06-05T00:01:55.352Z,20.10
2018-06-05T00:04:28.094Z,18.47
2018-06-05T00:07:00.707Z,19.80
2018-06-05T00:09:33.802Z,19.67
2018-06-05T00:12:06.601Z,20.23
2018-06-05T00:14:39.198Z,19.37
2018-06-05T00:17:12.066Z,19.57
2018-06-05T00:19:44.971Z,19.50
2018-06-05T00:22:17.557Z,19.33
2018-06-05T00:24:50.094Z,20.00
2018-06-05T00:27:22.518Z,20.77
2018-06-05T00:29:55.660Z,20.53
2018-06-05T00:32:28.142Z,20.17
2018-06-05T00:35:00.638Z,20.57
2018-06-05T00:37:34.412Z,21.67
2018-06-05T00:40:07.039Z,23.20
2018-06-05T00:42:39.648Z,22.17
2018-06-05T00:45:12.090Z,22.23
2018-06-05T00:47:44.825Z,23.53
2018-06-05T00:50:17.711Z,23.10
2018-06-05T00:52:50.474Z,21.43
2018-06-05T00:55:23.093Z,22.43
2018-06-05T00:57:55.848Z,22.30
2018-06-05T01:00:28.418Z,22.00
2018-06-05T01:03:01.361Z,22.93
2018-06-05T01:05:33.952Z,22.67
2018-06-05T01:08:06.439Z,23.20
2018-06-05T01:10:39.147Z,22.53
2018-06-05T01:13:11.882Z,21.60
2018-06-05T01:15:44.585Z,22.37
2018-06-05T01:18:17.400Z,22.37
2018-06-05T01:20:49.813Z,21.93
2018-06-05T01:23:22.201Z,22.50
2018-06-05T01:25:58.024Z,22.07
2018-06-05T01:28:30.586Z,23.50
2018-06-05T01:31:03.017Z,23.23
2018-06-05T01:33:35.489Z,23.93
2018-06-05T01:36:07.926Z,22.77
2018-06-05T01:38:40.306Z,22.90
2018-06-05T01:41:12.848Z,24.10
2018-06-05T01:43:45.232Z,22.60
2018-06-05T01:46:17.758Z,23.20
2018-06-05T01:48:50.453Z,23.03
2018-06-05T01:51:22.890Z,22.57
2018-06-05T01:53:55.469Z,24.03
2018-06-05T01:56:28.129Z,24.00
2018-06-05T01:59:00.590Z,23.40
2018-06-05T02:01:33.275Z,24.13
2018-06-05T02:04:05.674Z,22.93
2018-06-05T02:06:38.244Z,23.90
2018-06-05T02:09:10.642Z,22.63
2018-06-05T02:11:43.048Z,24.10
2018-06-05T02:14:15.469Z,22.90
2018-06-05T02:16:47.907Z,24.23
2018-06-05T02:19:20.569Z,23.27
2018-06-05T02:21:53.014Z,23.67
2018-06-05T02:24:25.439Z,22.67
2018-06-05T02:26:57.904Z,22.63
2018-06-05T02:29:30.438Z,23.73
2018-06-05T02:32:03.570Z,21.83
2018-06-05T02:34:35.982Z,21.27
2018-06-05T02:37:08.488Z,22.93
2018-06-05T02:39:41.018Z,21.87
2018-06-05T02:42:13.458Z,19.20
2018-06-05T02:44:46.029Z,22.03
2018-06-05T02:47:20.854Z,21.07
2018-06-05T02:49:53.301Z,21.80
2018-06-05T02:52:25.792Z,20.13
2018-06-05T02:54:58.286Z,21.90
2018-06-05T02:57:30.768Z,20.03
2018-06-05T03:00:03.973Z,20.27
2018-06-05T03:02:36.450Z,21.47
2018-06-05T03:05:09.254Z,19.77
2018-06-05T03:07:41.756Z,19.70
2018-06-05T03:10:14.258Z,17.33
2018-06-05T03:12:46.825Z,19.23
2018-06-05T03:15:19.898Z,19.70
2018-06-05T03:17:52.344Z,19.20
2018-06-05T03:20:24.741Z,19.50
2018-06-05T03:22:57.205Z,19.00
2018-06-05T03:25:29.681Z,18.27
2018-06-05T03:28:02.226Z,18.97
2018-06-05T03:30:34.739Z,18.40
2018-06-05T03:33:07.324Z,19.43
2018-06-05T03:35:40.002Z,19.07
2018-06-05T03:38:12.446Z,18.77
2018-06-05T03:40:44.947Z,19.30
2018-06-05T03:43:17.375Z,19.87
2018-06-05T03:45:49.801Z,18.97
2018-06-05T03:48:22.209Z,19.03
2018-06-05T03:50:54.654Z,17.90
2018-06-05T03:53:27.072Z,18.90
2018-06-05T03:55:59.541Z,19.20
2018-06-05T03:58:32.093Z,20.67
2018-06-05T04:01:06.578Z,19.90
2018-06-05T04:03:39.182Z,19.10
2018-06-05T04:06:11.663Z,18.27
2018-06-05T04:08:44.715Z,20.40
2018-06-05T04:11:17.195Z,19.67
2018-06-05T04:13:49.714Z,18.90
2018-06-05T04:16:22.087Z,20.87
2018-06-05T04:18:54.944Z,20.13
2018-06-05T04:21:27.419Z,19.07
2018-06-05T04:23:59.977Z,18.27
2018-06-05T04:26:32.356Z,18.70
2018-06-05T04:29:04.810Z,18.70
2018-06-05T04:31:37.373Z,18.30
2018-06-05T04:34:10.153Z,18.47
2018-06-05T04:36:42.604Z,18.47
2018-06-05T04:39:15.121Z,19.33
2018-06-05T04:41:47.590Z,18.63
2018-06-05T04:44:20.034Z,18.60
2018-06-05T04:46:52.867Z,17.97
2018-06-05T04:49:25.628Z,18.43
2018-06-05T04:51:58.094Z,16.83
2018-06-05T04:54:30.627Z,17.77
2018-06-05T04:57:03.075Z,17.07
2018-06-05T04:59:35.581Z,16.37
2018-06-05T05:02:08.032Z,17.20
2018-06-05T05:04:40.416Z,18.13
2018-06-05T05:07:13.136Z,18.10
2018-06-05T05:09:46.726Z,18.77
2018-06-05T05:12:19.389Z,18.33
2018-06-05T05:14:51.913Z,18.17
2018-06-05T05:17:24.780Z,18.43
2018-06-05T05:19:57.418Z,17.47
2018-06-05T05:22:29.997Z,18.27
2018-06-05T05:25:02.589Z,18.17
2018-06-05T05:27:35.020Z,17.40
2018-06-05T05:30:07.470Z,18.13
2018-06-05T05:32:39.982Z,17.93
2018-06-05T05:35:12.441Z,18.57
2018-06-05T05:37:44.851Z,17.40
2018-06-05T05:40:17.698Z,17.70
2018-06-05T05:42:50.081Z,19.83
2018-06-05T05:45:22.741Z,21.50
2018-06-05T05:47:55.249Z,20.30
2018-06-05T05:50:28.075Z,18.20
2018-06-05T05:53:00.550Z,18.57
2018-06-05T05:55:32.978Z,17.97
2018-06-05T05:58:05.445Z,18.53
2018-06-05T06:00:38.073Z,19.93
2018-06-05T06:03:10.496Z,18.87
2018-06-05T06:05:43.327Z,17.37
2018-06-05T06:08:15.839Z,19.07
2018-06-05T06:10:48.646Z,16.83
2018-06-05T06:13:21.217Z,17.90
2018-06-05T06:15:53.984Z,17.40
2018-06-05T06:18:26.448Z,17.70
2018-06-05T06:20:58.928Z,17.70
2018-06-05T06:23:31.499Z,17.97
2018-06-05T06:26:04.021Z,18.00
2018-06-05T06:28:36.466Z,17.60
2018-06-05T06:31:09.082Z,17.47
2018-06-05T06:33:41.772Z,17.17
2018-06-05T06:36:14.181Z,18.23
2018-06-05T06:38:47.272Z,17.43
2018-06-05T06:41:20.110Z,18.90
2018-06-05T06:43:52.703Z,17.37
2018-06-05T06:46:25.406Z,19.97
2018-06-05T06:48:58.060Z,17.87
2018-06-05T06:51:32.560Z,18.83
2018-06-05T06:54:05.025Z,19.17
2018-06-05T06:56:37.676Z,20.77
2018-06-05T06:59:11.065Z,19.43
2018-06-05T07:01:44.819Z,19.90
2018-06-05T07:04:17.516Z,19.60
2018-06-05T07:06:50.502Z,18.37
2018-06-05T07:09:22.946Z,16.77
2018-06-05T07:11:55.413Z,18.07
2018-06-05T07:14:28.064Z,19.50
2018-06-05T07:17:01.208Z,18.00
2018-06-05T07:19:33.821Z,19.70
2018-06-05T07:22:06.371Z,18.70
2018-06-05T07:24:38.910Z,19.60
2018-06-05T07:27:11.645Z,18.87
2018-06-05T07:29:44.155Z,16.63
2018-06-05T07:32:17.374Z,17.37
2018-06-05T07:34:50.129Z,15.97
2018-06-05T07:37:22.825Z,16.37
2018-06-05T07:39:55.281Z,16.57
2018-06-05T07:42:27.730Z,16.70
2018-06-05T07:45:00.285Z,17.20
2018-06-05T07:47:33.075Z,16.50
2018-06-05T07:50:05.814Z,16.47
2018-06-05T07:52:38.573Z,16.63
2018-06-05T07:55:11.149Z,17.60
2018-06-05T07:57:43.787Z,16.50
2018-06-05T08:00:16.210Z,17.03
2018-06-05T08:02:49.525Z,16.00
2018-06-05T08:05:22.026Z,16.90
2018-06-05T08:07:54.740Z,16.50
2018-06-05T08:10:27.503Z,19.03
2018-06-05T08:13:00.142Z,18.93
2018-06-05T08:15:32.722Z,18.10
2018-06-05T08:18:05.204Z,17.27
2018-06-05T08:20:37.673Z,16.33
2018-06-05T08:23:10.198Z,17.03
2018-06-05T08:25:42.640Z,18.00
2018-06-05T08:28:15.146Z,17.83
2018-06-05T08:30:47.726Z,17.33
2018-06-05T08:33:20.278Z,17.43
2018-06-05T08:35:53.231Z,17.77
2018-06-05T08:38:25.985Z,15.63
2018-06-05T08:40:58.736Z,16.20
2018-06-05T08:43:31.260Z,14.67
2018-06-05T08:46:04.025Z,17.57
2018-06-05T08:48:37.258Z,15.70
2018-06-05T08:51:10.135Z,16.80
2018-06-05T08:53:42.822Z,16.87
2018-06-05T08:56:15.511Z,17.20
2018-06-05T08:58:49.083Z,17.70
2018-06-05T09:01:21.707Z,17.70
2018-06-05T09:03:54.355Z,18.83
2018-06-05T09:06:26.989Z,17.03
2018-06-05T09:09:00.435Z,19.70
2018-06-05T09:11:33.355Z,18.83
2018-06-05T09:14:06.655Z,17.30
2018-06-05T09:16:39.374Z,17.80
2018-06-05T09:19:13.503Z,17.63
2018-06-05T09:21:47.708Z,16.83
2018-06-05T09:24:21.618Z,16.80
2018-06-05T09:26:55.581Z,16.63
2018-06-05T09:29:29.928Z,16.60
2018-06-05T09:32:02.826Z,17.07
2018-06-05T09:34:35.809Z,17.93
2018-06-05T09:37:08.348Z,17.60
2018-06-05T09:39:41.162Z,17.63
2018-06-05T09:42:13.794Z,17.33
2018-06-05T09:44:46.392Z,17.27
2018-06-05T09:47:19.055Z,20.50
2018-06-05T09:49:52.364Z,17.70
2018-06-05T09:52:25.121Z,17.97
2018-06-05T09:54:57.793Z,19.37
2018-06-05T09:57:30.634Z,17.90
2018-06-05T10:00:04.352Z,17.97
2018-06-05T10:02:40.706Z,17.97
2018-06-05T10:05:13.564Z,19.47
2018-06-05T10:07:46.905Z,17.90
2018-06-05T10:10:20.404Z,18.07
2018-06-05T10:12:53.541Z,17.00
2018-06-05T10:15:26.928Z,17.37
2018-06-05T10:17:59.647Z,17.10
2018-06-05T10:20:33.048Z,18.20
2018-06-05T10:23:06.404Z,17.50
2018-06-05T10:25:39.170Z,17.97
2018-06-05T10:28:11.838Z,17.33
2018-06-05T10:30:44.375Z,18.20
2018-06-05T10:33:17.555Z,17.33
2018-06-05T10:35:51.049Z,18.63
2018-06-05T10:38:23.666Z,16.67
2018-06-05T10:40:57.339Z,19.93
2018-06-05T10:43:30.744Z,18.30
2018-06-05T10:46:03.918Z,18.10
2018-06-05T10:48:36.664Z,17.93
2018-06-05T10:51:09.337Z,19.73
2018-06-05T10:53:42.170Z,18.73
2018-06-05T10:56:16.378Z,20.60
2018-06-05T10:58:49.764Z,17.47
2018-06-05T11:01:22.369Z,19.90
2018-06-05T11:03:54.887Z,17.50
2018-06-05T11:06:27.360Z,18.90
2018-06-05T11:09:00.074Z,17.60
2018-06-05T11:11:32.971Z,19.40
2018-06-05T11:14:05.641Z,17.97
2018-06-05T11:16:41.596Z,16.97
2018-06-05T11:19:14.812Z,17.50
2018-06-05T11:21:47.338Z,18.37
2018-06-05T11:24:21.028Z,17.87
2018-06-05T11:26:53.796Z,17.33
2018-06-05T11:29:26.313Z,16.00
2018-06-05T11:31:58.969Z,17.07
2018-06-05T11:34:31.700Z,16.43
2018-06-05T11:37:04.422Z,16.80
2018-06-05T11:39:41.229Z,17.37
2018-06-05T11:42:13.996Z,17.13
2018-06-05T11:44:47.346Z,16.30
2018-06-05T11:47:19.972Z,16.80
2018-06-05T11:49:53.214Z,15.23
2018-06-05T11:52:25.743Z,16.07
2018-06-05T11:54:58.446Z,16.07
2018-06-05T11:57:31.377Z,16.10
2018-06-05T12:00:04.654Z,15.97
2018-06-05T12:02:37.279Z,14.17
2018-06-05T12:05:10.713Z,13.63
2018-06-05T12:07:49.316Z,14.73
2018-06-05T12:10:21.826Z,13.10
2018-06-05T12:12:54.351Z,15.47
2018-06-05T12:15:27.384Z,14.73
2018-06-05T12:18:00.107Z,14.33
2018-06-05T12:20:32.863Z,14.40
2018-06-05T12:23:06.240Z,14.87
2018-06-05T12:25:39.018Z,14.27
2018-06-05T12:28:11.552Z,14.47
2018-06-05T12:30:44.089Z,14.30
2018-06-05T12:33:17.995Z,14.30
2018-06-05T12:35:50.771Z,13.33
2018-06-05T12:38:23.694Z,12.53
2018-06-05T12:40:56.496Z,11.90
2018-06-05T12:43:29.214Z,11.63
2018-06-05T12:46:06.441Z,11.33
2018-06-05T12:48:39.107Z,11.73
2018-06-05T12:51:16.130Z,10.27
2018-06-05T12:53:49.051Z,13.20
2018-06-05T12:56:21.969Z,11.47
2018-06-05T12:58:55.368Z,10.77
2018-06-05T13:01:27.824Z,10.37
2018-06-05T13:04:01.608Z,12.20
2018-06-05T13:06:34.237Z,11.30
2018-06-05T13:09:08.138Z,10.33
2018-06-05T13:11:40.807Z,9.40
2018-06-05T13:14:13.698Z,10.47
2018-06-05T13:16:47.104Z,8.63
2018-06-05T13:19:21.683Z,8.73
2018-06-05T13:21:56.579Z,9.00
2018-06-05T13:24:29.875Z,9.43
2018-06-05T13:27:04.783Z,9.00
2018-06-05T13:29:37.601Z,8.93
2018-06-05T13:32:10.221Z,7.97
2018-06-05T13:34:42.732Z,8.47
2018-06-05T13:37:15.335Z,8.33
2018-06-05T13:39:48.057Z,9.20
2018-06-05T13:42:20.698Z,8.87
2018-06-05T13:44:53.516Z,8.73
2018-06-05T13:47:26.208Z,11.70
2018-06-05T13:49:58.880Z,9.77
2018-06-05T13:52:31.540Z,10.30
2018-06-05T13:55:04.473Z,9.33
2018-06-05T13:57:37.067Z,8.40
2018-06-05T14:00:13.497Z,8.83
2018-06-05T14:02:46.200Z,9.33
2018-06-05T14:05:18.993Z,9.60
2018-06-05T14:07:51.585Z,9.47
2018-06-05T14:10:24.266Z,9.03
2018-06-05T14:12:56.914Z,9.43
2018-06-05T14:15:29.555Z,9.27
2018-06-05T14:18:02.234Z,9.63
2018-06-05T14:20:35.372Z,9.60
2018-06-05T14:23:07.869Z,9.87
2018-06-05T14:25:40.467Z,9.43
2018-06-05T14:28:13.544Z,9.43
2018-06-05T14:30:46.654Z,9.27
2018-06-05T14:33:19.945Z,9.43
2018-06-05T14:35:53.215Z,8.63
2018-06-05T14:38:26.385Z,9.60
2018-06-05T14:40:59.214Z,8.73
2018-06-05T14:43:33.242Z,9.40
2018-06-05T14:46:06.161Z,9.37
2018-06-05T14:48:39.324Z,8.10
2018-06-05T14:51:12.168Z,8.97
2018-06-05T14:53:46.375Z,9.70
2018-06-05T14:56:18.937Z,9.97
2018-06-05T14:58:51.494Z,9.40
2018-06-05T15:01:24.070Z,9.50
2018-06-05T15:03:56.489Z,9.53
2018-06-05T15:06:29.107Z,9.43
2018-06-05T15:09:02.255Z,9.53
2018-06-05T15:11:34.726Z,9.23
2018-06-05T15:14:07.449Z,9.23
2018-06-05T15:16:39.971Z,9.37
2018-06-05T15:19:12.485Z,23.20
2018-06-05T15:21:45.364Z,10.10
2018-06-05T15:24:18.271Z,9.20
2018-06-05T15:26:50.930Z,9.20
2018-06-05T15:29:23.365Z,8.83
2018-06-05T15:31:55.791Z,9.23
2018-06-05T15:34:28.567Z,8.80
2018-06-05T15:37:01.103Z,9.33
2018-06-05T15:39:33.622Z,9.07
2018-06-05T15:42:06.263Z,9.43
2018-06-05T15:44:38.734Z,11.23
2018-06-05T15:47:11.150Z,9.90
2018-06-05T15:49:44.139Z,9.03
2018-06-05T15:52:16.573Z,9.13
2018-06-05T15:54:49.127Z,8.70
2018-06-05T15:57:21.570Z,9.13
2018-06-05T15:59:54.154Z,11.27
2018-06-05T16:02:26.657Z,8.97
2018-06-05T16:04:59.064Z,9.87
2018-06-05T16:07:31.523Z,15.40
2018-06-05T16:10:04.028Z,9.47
2018-06-05T16:12:36.671Z,9.43
2018-06-05T16:15:09.167Z,8.43
2018-06-05T16:17:41.918Z,8.43
2018-06-05T16:20:15.391Z,8.33
2018-06-05T16:22:48.353Z,8.57
2018-06-05T16:25:21.073Z,8.37
2018-06-05T16:27:53.867Z,8.90
2018-06-05T16:30:26.549Z,9.47
2018-06-05T16:32:59.090Z,9.53
2018-06-05T16:35:31.550Z,8.73
2018-06-05T16:38:04.095Z,10.67
2018-06-05T16:40:36.568Z,9.77
2018-06-05T16:43:09.036Z,9.43
2018-06-05T16:45:41.491Z,11.10
2018-06-05T16:48:13.946Z,9.03
2018-06-05T16:50:46.486Z,8.90
2018-06-05T16:53:19.775Z,21.13
2018-06-05T16:55:52.392Z,12.63
2018-06-05T16:58:26.395Z,24.70
2018-06-05T17:00:59.070Z,11.07
2018-06-05T17:03:32.083Z,9.30
2018-06-05T17:06:04.847Z,11.53
2018-06-05T17:08:37.396Z,10.50
2018-06-05T17:11:10.218Z,10.40
2018-06-05T17:13:44.785Z,10.00
2018-06-05T17:16:18.604Z,10.00
2018-06-05T17:18:51.218Z,9.70
2018-06-05T17:21:23.897Z,10.60
2018-06-05T17:23:57.065Z,10.87
2018-06-05T17:26:29.793Z,10.33
2018-06-05T17:29:02.534Z,10.17
2018-06-05T17:31:35.122Z,10.43
2018-06-05T17:34:07.928Z,10.17
2018-06-05T17:36:40.540Z,8.37
2018-06-05T17:39:13.643Z,12.83
2018-06-05T17:41:46.242Z,7.20
2018-06-05T17:44:19.277Z,6.43
2018-06-05T17:46:52.916Z,7.37
2018-06-05T17:49:25.653Z,5.50
2018-06-05T17:51:58.935Z,5.60
2018-06-05T17:54:31.656Z,4.10
2018-06-05T17:57:04.362Z,4.53
2018-06-05T17:59:37.553Z,5.27
2018-06-05T18:02:10.298Z,10.47
2018-06-05T18:04:43.009Z,3.97
2018-06-05T18:07:16.769Z,3.33
2018-06-05T18:09:49.366Z,3.10
2018-06-05T18:12:22.141Z,4.60
2018-06-05T18:14:54.944Z,8.60
2018-06-05T18:17:27.636Z,2.60
2018-06-05T18:20:01.302Z,3.00
2018-06-05T18:22:34.108Z,2.67
2018-06-05T18:25:06.809Z,5.20
2018-06-05T18:27:39.388Z,2.60
2018-06-05T18:30:11.981Z,2.10
2018-06-05T18:32:44.612Z,2.23
2018-06-05T18:35:17.215Z,2.03
2018-06-05T18:37:50.035Z,2.40
2018-06-05T18:40:23.558Z,2.30
2018-06-05T18:42:56.438Z,4.00
2018-06-05T18:45:28.920Z,1.90
2018-06-05T18:48:01.661Z,1.70
2018-06-05T18:50:34.267Z,1.83
2018-06-05T18:53:06.829Z,1.90
2018-06-05T18:55:39.446Z,2.17
2018-06-05T18:58:12.134Z,2.40
2018-06-05T19:00:44.630Z,2.30
2018-06-05T19:03:17.112Z,2.77
2018-06-05T19:05:49.621Z,2.00
2018-06-05T19:08:22.248Z,2.00
2018-06-05T19:10:54.739Z,1.77
2018-06-05T19:13:27.669Z,2.10
2018-06-05T19:16:00.996Z,1.90
2018-06-05T19:18:33.819Z,2.20
2018-06-05T19:21:06.443Z,2.03
2018-06-05T19:23:39.337Z,2.53
2018-06-05T19:26:12.200Z,2.17
2018-06-05T19:28:45.251Z,3.30
2018-06-05T19:31:18.095Z,2.00
2018-06-05T19:33:50.579Z,1.70
2018-06-05T19:36:23.121Z,1.93
2018-06-05T19:38:55.731Z,1.50
2018-06-05T19:41:28.256Z,1.67
2018-06-05T19:44:00.723Z,1.60
2018-06-05T19:46:33.229Z,1.70
2018-06-05T19:49:05.976Z,2.20
2018-06-05T19:51:38.375Z,1.63
2018-06-05T19:54:11.086Z,1.53
2018-06-05T19:56:45.504Z,1.50
2018-06-05T19:59:20.033Z,1.97
2018-06-05T20:01:53.390Z,2.30
2018-06-05T20:04:27.214Z,2.00
2018-06-05T20:07:01.815Z,2.87
2018-06-05T20:09:35.529Z,2.37
2018-06-05T20:12:08.887Z,2.10
2018-06-05T20:14:42.323Z,1.80
2018-06-05T20:17:14.799Z,1.93
2018-06-05T20:19:47.243Z,1.50
2018-06-05T20:22:19.822Z,1.83
2018-06-05T20:24:52.173Z,6.17
2018-06-05T20:27:24.679Z,1.90
2018-06-05T20:29:57.114Z,3.17
2018-06-05T20:32:29.588Z,2.50
2018-06-05T20:35:02.079Z,2.77
2018-06-05T20:37:34.533Z,2.03
2018-06-05T20:40:06.923Z,2.10
2018-06-05T20:42:39.373Z,1.77
2018-06-05T20:45:12.647Z,2.57
2018-06-05T20:47:46.205Z,2.07
2018-06-05T20:50:18.679Z,2.60
2018-06-05T20:52:51.118Z,1.80
2018-06-05T20:55:23.542Z,1.80
2018-06-05T20:57:56.073Z,1.77
2018-06-05T21:00:28.681Z,1.60
2018-06-05T21:03:01.188Z,1.67
2018-06-05T21:05:33.586Z,1.80
2018-06-05T21:08:06.098Z,1.87
2018-06-05T21:10:38.516Z,1.87
2018-06-05T21:13:10.906Z,2.30
2018-06-05T21:15:43.344Z,2.10
2018-06-05T21:18:15.714Z,2.13
2018-06-05T21:20:48.132Z,2.83
2018-06-05T21:23:20.573Z,2.07
2018-06-05T21:25:53.059Z,2.10
2018-06-05T21:28:25.484Z,2.03
2018-06-05T21:30:57.919Z,2.23
2018-06-05T21:33:30.387Z,2.33
2018-06-05T21:36:02.769Z,2.03
2018-06-05T21:38:35.162Z,2.23
2018-06-05T21:41:07.510Z,2.23
2018-06-05T21:43:40.011Z,2.37
2018-06-05T21:46:12.526Z,2.10
2018-06-05T21:48:45.146Z,1.90
2018-06-05T21:51:17.593Z,2.10
2018-06-05T21:53:49.969Z,2.10
2018-06-05T21:56:22.757Z,2.07
2018-06-05T21:58:55.242Z,2.17
2018-06-05T22:01:27.761Z,2.40
2018-06-05T22:04:00.884Z,2.60
2018-06-05T22:06:33.291Z,2.73
2018-06-05T22:09:07.621Z,2.73
2018-06-05T22:11:40.022Z,2.70
2018-06-05T22:14:12.466Z,2.60
2018-06-05T22:16:44.910Z,2.70
2018-06-05T22:19:17.334Z,2.60
2018-06-05T22:21:49.754Z,2.57
2018-06-05T22:24:22.137Z,2.40
2018-06-05T22:26:54.602Z,2.20
2018-06-05T22:29:27.338Z,2.40
2018-06-05T22:31:59.848Z,3.63
2018-06-05T22:34:32.531Z,3.30
2018-06-05T22:37:04.960Z,2.80
2018-06-05T22:39:37.406Z,2.00
2018-06-05T22:42:09.781Z,2.47
2018-06-05T22:44:42.202Z,2.40
2018-06-05T22:47:14.558Z,2.80
2018-06-05T22:49:47.250Z,2.00
2018-06-05T22:52:19.678Z,2.87
2018-06-05T22:54:52.160Z,2.07
2018-06-05T22:57:24.590Z,2.20
2018-06-05T22:59:57.104Z,2.43
2018-06-05T23:02:29.541Z,2.37
2018-06-05T23:05:02.047Z,2.50
2018-06-05T23:07:34.435Z,2.23
2018-06-05T23:10:08.022Z,2.43
2018-06-05T23:12:40.389Z,2.30
2018-06-05T23:15:12.799Z,2.70
2018-06-05T23:17:45.276Z,2.57
2018-06-05T23:20:17.662Z,2.30
2018-06-05T23:22:50.217Z,2.10
2018-06-05T23:25:22.646Z,2.47
2018-06-05T23:27:55.023Z,1.93
2018-06-05T23:30:27.511Z,2.03
2018-06-05T23:32:59.951Z,2.00
2018-06-05T23:35:32.349Z,1.87
2018-06-05T23:38:04.850Z,2.00
2018-06-05T23:40:37.247Z,2.50
2018-06-05T23:43:09.730Z,2.10
2018-06-05T23:45:42.140Z,1.80
2018-06-05T23:48:14.516Z,2.33
2018-06-05T23:50:46.987Z,1.80
2018-06-05T23:53:19.593Z,2.60
2018-06-05T23:55:51.978Z,2.00
2018-06-05T23:58:24.378Z,2.00
